Time;durP1;ratioP1;P1;durP2;ratioP2;P2;SDS_P1;SDS_P2;PMS_P1;PMS_P2;Temp;Humidity;BMP_temperature;BMP_pressure;BME280_temperature;BME280_humidity;BME280_pressure;Samples;Min_cycle;Max_cycle;Signal;HPM_P1;HPM_P2
2021/09/09 00:02:11;;;;;;;4.90;2.08;;;;;;;31.02;20.77;94911.56;5035981;28;20060;-61
2021/09/09 00:04:39;;;;;;;3.70;1.70;;;;;;;30.86;20.94;94908.63;5035676;28;20049;-59
2021/09/09 00:07:08;;;;;;;2.15;1.58;;;;;;;31.01;21.03;94915.41;5035570;28;20044;-54
2021/09/09 00:09:36;;;;;;;2.70;1.70;;;;;;;31.05;20.81;94920.78;5035783;28;20060;-57
2021/09/09 00:12:04;;;;;;;2.08;1.60;;;;;;;30.99;20.79;94917.75;5050731;28;20037;-55
2021/09/09 00:14:31;;;;;;;3.15;1.98;;;;;;;31.04;20.87;94913.84;5035023;28;20060;-57
2021/09/09 00:16:58;;;;;;;2.67;1.77;;;;;;;31.04;21.18;94914.59;5035460;28;20080;-54
2021/09/09 00:19:26;;;;;;;3.75;2.00;;;;;;;30.89;21.28;94907.84;5035003;28;20046;-55
2021/09/09 00:21:53;;;;;;;2.08;1.60;;;;;;;30.96;21.26;94907.75;5035097;28;20128;-54
2021/09/09 00:24:21;;;;;;;3.15;1.85;;;;;;;31.09;21.15;94916.84;5035313;28;20052;-56
2021/09/09 00:26:49;;;;;;;5.10;2.05;;;;;;;30.92;21.46;94912.41;5035369;28;20061;-55
2021/09/09 00:29:17;;;;;;;4.03;2.33;;;;;;;31.02;21.26;94910.78;5035293;28;20352;-56
2021/09/09 00:31:45;;;;;;;4.57;2.20;;;;;;;30.99;21.39;94901.56;5035338;28;20053;-54
2021/09/09 00:34:12;;;;;;;3.75;2.08;;;;;;;30.74;21.57;94906.47;5035053;28;20364;-56
2021/09/09 00:36:39;;;;;;;4.03;2.08;;;;;;;30.30;21.91;94899.94;5035148;28;20049;-54
2021/09/09 00:39:06;;;;;;;2.88;2.00;;;;;;;30.62;21.82;94903.13;5033873;28;20049;-55
2021/09/09 00:41:34;;;;;;;2.83;1.95;;;;;;;30.57;22.15;94903.53;5034776;28;20061;-58
2021/09/09 00:44:01;;;;;;;2.58;2.05;;;;;;;30.76;21.73;94904.16;5034292;28;20049;-54
2021/09/09 00:46:31;;;;;;;4.18;2.30;;;;;;;30.73;21.72;94903.03;5035007;28;20057;-58
2021/09/09 00:48:59;;;;;;;4.75;2.20;;;;;;;30.50;21.98;94898.22;5034716;28;20491;-54
2021/09/09 00:51:26;;;;;;;3.75;2.30;;;;;;;30.43;22.01;94909.06;5033750;28;20049;-56
2021/09/09 00:53:54;;;;;;;3.08;2.00;;;;;;;30.78;21.84;94901.81;5034681;28;20049;-54
2021/09/09 00:56:21;;;;;;;4.15;2.20;;;;;;;30.72;21.96;94893.41;5050302;28;20523;-54
2021/09/09 00:58:48;;;;;;;2.97;2.20;;;;;;;30.70;21.76;94903.78;5034789;28;20052;-56
2021/09/09 01:01:15;;;;;;;5.13;2.40;;;;;;;30.31;22.41;94890.69;5033973;28;20062;-54
2021/09/09 01:03:43;;;;;;;4.57;2.35;;;;;;;30.71;22.16;94897.25;5034787;28;20045;-57
2021/09/09 01:06:10;;;;;;;3.15;2.03;;;;;;;30.59;22.09;94895.78;5035075;28;20451;-58
2021/09/09 01:08:37;;;;;;;4.43;2.65;;;;;;;30.64;21.99;94891.91;5034489;28;20056;-57
2021/09/09 01:11:04;;;;;;;3.83;2.20;;;;;;;30.66;22.06;94884.94;5034446;28;20044;-56
2021/09/09 01:13:31;;;;;;;4.18;2.60;;;;;;;30.45;22.43;94879.78;5049656;28;20064;-56
2021/09/09 01:15:58;;;;;;;4.00;2.50;;;;;;;30.80;21.87;94888.66;5034106;28;20057;-58
2021/09/09 01:18:26;;;;;;;4.43;2.35;;;;;;;30.73;22.12;94880.66;5034602;28;20057;-54
2021/09/09 01:20:54;;;;;;;3.55;2.70;;;;;;;30.49;22.18;94885.91;5035626;28;20052;-59
2021/09/09 01:23:21;;;;;;;5.55;2.70;;;;;;;30.54;22.27;94893.53;5035042;28;20065;-57
2021/09/09 01:25:48;;;;;;;3.17;2.42;;;;;;;30.44;22.35;94883.63;5034578;28;20041;-55
2021/09/09 01:28:15;;;;;;;4.40;2.40;;;;;;;30.53;22.35;94886.63;5034229;28;20053;-55
2021/09/09 01:30:42;;;;;;;4.30;2.40;;;;;;;30.72;22.19;94876.44;5034499;28;20046;-57
2021/09/09 01:33:09;;;;;;;4.13;2.40;;;;;;;30.52;22.18;94884.31;5032734;28;20057;-58
2021/09/09 01:35:36;;;;;;;4.82;2.50;;;;;;;30.55;22.34;94886.97;5035280;28;20045;-55
2021/09/09 01:38:04;;;;;;;3.85;2.20;;;;;;;30.58;22.00;94883.47;5034124;28;20041;-58
2021/09/09 01:40:32;;;;;;;4.85;2.40;;;;;;;30.44;22.32;94882.84;5034509;28;20052;-57
2021/09/09 01:43:00;;;;;;;2.90;2.50;;;;;;;30.50;22.27;94887.44;5033944;28;20042;-56
2021/09/09 01:45:28;;;;;;;4.43;2.53;;;;;;;30.30;22.53;94878.38;5032877;28;20459;-61
2021/09/09 01:47:55;;;;;;;3.10;2.00;;;;;;;30.07;22.86;94878.97;5034696;28;20053;-56
2021/09/09 01:50:22;;;;;;;4.53;2.58;;;;;;;30.33;22.59;94888.34;5034969;28;20045;-55
2021/09/09 01:52:49;;;;;;;2.97;2.40;;;;;;;29.84;23.24;94879.50;5049421;28;20054;-60
2021/09/09 01:55:16;;;;;;;2.90;2.20;;;;;;;30.10;22.85;94885.50;5016728;28;20046;-59
2021/09/09 01:57:43;;;;;;;3.58;2.20;;;;;;;29.90;23.17;94886.00;5015705;28;20057;-58
2021/09/09 02:00:11;;;;;;;3.72;2.03;;;;;;;30.04;22.97;94888.63;5034283;28;20045;-56
2021/09/09 02:02:41;;;;;;;5.32;2.55;;;;;;;30.45;22.49;94890.56;5034583;28;20049;-59
2021/09/09 02:05:10;;;;;;;2.80;2.13;;;;;;;30.19;22.92;94883.88;5033216;28;20053;-62
2021/09/09 02:07:37;;;;;;;4.68;2.50;;;;;;;30.14;22.92;94891.63;5034304;28;20077;-60
2021/09/09 02:10:06;;;;;;;4.00;2.13;;;;;;;30.34;22.42;94895.28;5034118;28;20049;-58
2021/09/09 02:12:33;;;;;;;6.88;2.47;;;;;;;30.16;22.85;94887.34;5034899;28;20049;-61
2021/09/09 02:15:00;;;;;;;4.30;2.45;;;;;;;30.27;22.67;94889.97;5037162;28;20061;-63
2021/09/09 02:17:27;;;;;;;3.03;2.33;;;;;;;30.31;22.86;94893.38;5037894;28;20065;-54
2021/09/09 02:19:54;;;;;;;3.85;2.70;;;;;;;30.14;22.70;94892.38;5037452;28;20056;-54
2021/09/09 02:22:21;;;;;;;3.70;2.28;;;;;;;30.15;22.93;94893.16;5037495;28;20800;-55
2021/09/09 02:24:50;;;;;;;3.22;2.45;;;;;;;30.10;22.87;94890.88;5038097;28;20049;-55
2021/09/09 02:27:18;;;;;;;3.10;2.30;;;;;;;30.38;22.59;94901.41;5037416;28;20061;-55
2021/09/09 02:29:45;;;;;;;3.28;2.88;;;;;;;30.26;22.74;94905.38;5037853;28;20049;-55
2021/09/09 02:32:12;;;;;;;2.88;1.95;;;;;;;30.20;22.95;94895.44;5037701;28;20042;-55
2021/09/09 02:34:39;;;;;;;4.55;2.28;;;;;;;30.36;22.68;94898.34;5037467;28;20053;-56
2021/09/09 02:37:06;;;;;;;3.83;2.40;;;;;;;30.21;22.88;94905.06;5037107;28;20060;-55
2021/09/09 02:39:33;;;;;;;3.65;2.33;;;;;;;30.42;22.66;94896.75;5037440;28;20064;-55
2021/09/09 02:42:01;;;;;;;4.32;2.72;;;;;;;30.26;22.77;94899.22;5035403;28;20050;-56
2021/09/09 02:44:28;;;;;;;4.78;2.50;;;;;;;30.10;23.01;94897.03;5036593;28;20375;-55
2021/09/09 02:46:55;;;;;;;5.32;2.38;;;;;;;30.26;22.99;94889.19;5037118;28;20045;-55
2021/09/09 02:49:22;;;;;;;3.47;2.50;;;;;;;30.33;22.76;94889.13;5037132;28;20053;-57
2021/09/09 02:51:49;;;;;;;4.22;2.50;;;;;;;30.34;22.89;94892.59;5036895;28;20048;-56
2021/09/09 02:54:16;;;;;;;4.32;2.45;;;;;;;30.29;23.06;94896.50;5037004;28;20080;-54
2021/09/09 02:56:43;;;;;;;3.58;2.72;;;;;;;30.16;23.02;94900.84;5036949;28;20053;-55
2021/09/09 02:59:10;;;;;;;3.42;2.30;;;;;;;30.36;22.80;94898.34;5037358;28;20048;-55
2021/09/09 03:01:38;;;;;;;3.08;2.40;;;;;;;30.21;23.12;94899.66;5036965;28;20053;-54
2021/09/09 03:04:06;;;;;;;3.03;2.25;;;;;;;30.20;23.19;94895.44;5036760;28;20055;-55
2021/09/09 03:06:33;;;;;;;4.28;2.40;;;;;;;30.22;22.97;94887.72;5036678;28;20041;-56
2021/09/09 03:09:00;;;;;;;3.85;2.30;;;;;;;30.19;23.17;94897.38;5037328;28;20045;-55
2021/09/09 03:11:28;;;;;;;4.07;2.30;;;;;;;30.37;22.91;94895.25;5036137;28;20061;-54
2021/09/09 03:13:55;;;;;;;3.05;2.20;;;;;;;29.98;23.38;94900.97;5036248;28;20440;-56
2021/09/09 03:16:22;;;;;;;4.00;2.17;;;;;;;30.23;23.09;94898.09;5016736;28;20389;-59
2021/09/09 03:18:49;;;;;;;3.25;2.28;;;;;;;29.76;23.76;94892.28;5016812;28;20420;-55
2021/09/09 03:21:16;;;;;;;3.95;2.00;;;;;;;29.91;23.40;94895.63;5016851;28;20377;-57
2021/09/09 03:23:44;;;;;;;3.00;2.17;;;;;;;29.93;23.48;94890.63;5034601;28;20042;-57
2021/09/09 03:26:11;;;;;;;3.28;2.13;;;;;;;29.88;23.61;94884.88;5051743;28;20056;-55
2021/09/09 03:28:38;;;;;;;3.80;2.08;;;;;;;29.98;23.43;94892.88;5036625;28;20048;-58
2021/09/09 03:31:05;;;;;;;3.28;2.35;;;;;;;30.03;23.38;94889.78;5036638;28;20049;-58
2021/09/09 03:33:32;;;;;;;4.25;1.95;;;;;;;29.99;23.48;94891.72;5035733;28;20068;-56
2021/09/09 03:35:59;;;;;;;4.35;1.85;;;;;;;30.08;23.47;94897.44;5036300;28;20041;-57
2021/09/09 03:38:26;;;;;;;4.57;2.22;;;;;;;30.17;23.32;94891.56;5036543;28;20045;-58
2021/09/09 03:40:53;;;;;;;3.10;2.00;;;;;;;30.01;23.48;94891.31;5036328;28;20312;-58
2021/09/09 03:43:20;;;;;;;4.80;1.92;;;;;;;29.93;23.44;94893.31;5035376;28;20060;-60
2021/09/09 03:45:48;;;;;;;3.70;1.80;;;;;;;29.80;23.75;94889.56;5035503;28;20052;-57
2021/09/09 03:48:15;;;;;;;2.90;2.00;;;;;;;29.73;23.95;94889.63;5036109;28;20061;-57
2021/09/09 03:50:42;;;;;;;3.35;1.90;;;;;;;30.00;23.61;94893.25;5036295;28;20048;-58
2021/09/09 03:53:09;;;;;;;2.72;1.70;;;;;;;29.94;23.78;94889.47;5035764;28;20056;-58
2021/09/09 03:55:36;;;;;;;2.60;1.63;;;;;;;29.87;23.78;94902.97;5036372;28;20049;-57
2021/09/09 03:58:03;;;;;;;3.72;2.00;;;;;;;30.02;23.53;94898.25;5036168;28;20060;-61
2021/09/09 04:00:31;;;;;;;4.25;2.00;;;;;;;30.00;23.50;94898.66;5036076;28;20053;-56
2021/09/09 04:02:59;;;;;;;3.58;1.92;;;;;;;29.81;23.63;94906.50;5035488;28;20057;-60
2021/09/09 04:05:26;;;;;;;7.38;1.80;;;;;;;29.91;23.57;94911.03;5036624;28;20053;-58
2021/09/09 04:07:53;;;;;;;2.80;1.90;;;;;;;29.96;23.61;94908.69;5035497;28;20057;-59
2021/09/09 04:10:20;;;;;;;3.45;1.65;;;;;;;29.72;23.82;94904.25;5034896;28;20056;-59
2021/09/09 04:12:47;;;;;;;4.57;1.77;;;;;;;30.11;23.30;94913.97;5035261;28;20068;-61
2021/09/09 04:15:14;;;;;;;5.97;2.00;;;;;;;30.00;23.53;94914.03;5034934;28;20061;-62
2021/09/09 04:17:41;;;;;;;3.35;2.15;;;;;;;30.17;23.24;94915.06;5035464;28;20463;-62
2021/09/09 04:20:09;;;;;;;2.90;1.80;;;;;;;30.06;23.46;94910.56;5035222;28;20057;-61
2021/09/09 04:22:36;;;;;;;3.50;1.70;;;;;;;30.00;23.80;94906.72;5034882;28;20049;-61
2021/09/09 04:25:05;;;;;;;4.97;2.17;;;;;;;30.10;23.47;94901.66;5035433;28;20049;-62
2021/09/09 04:27:32;;;;;;;2.45;1.60;;;;;;;30.08;23.58;94910.91;5035467;28;20041;-54
2021/09/09 04:30:00;;;;;;;3.90;2.10;;;;;;;30.10;23.51;94901.66;5035287;28;20084;-55
2021/09/09 04:32:27;;;;;;;4.88;2.17;;;;;;;30.13;23.54;94904.31;5034789;28;20045;-55
2021/09/09 04:34:54;;;;;;;3.33;2.00;;;;;;;30.28;23.34;94902.28;5035329;28;20060;-56
2021/09/09 04:37:25;;;;;;;4.25;2.30;;;;;;;30.36;23.23;94895.66;5034462;28;20053;-56
2021/09/09 04:39:52;;;;;;;2.35;1.80;;;;;;;30.29;23.49;94895.72;5034744;28;20068;-56
2021/09/09 04:42:19;;;;;;;3.55;1.83;;;;;;;30.32;23.39;94903.00;5034629;28;20053;-55
2021/09/09 04:44:46;;;;;;;3.05;1.83;;;;;;;30.56;22.96;94890.44;5034385;28;20060;-55
2021/09/09 04:47:13;;;;;;;3.95;1.80;;;;;;;30.35;23.37;94889.50;5035503;28;20057;-57
2021/09/09 04:49:41;;;;;;;3.20;1.80;;;;;;;30.57;22.87;94886.59;5035953;28;20064;-55
2021/09/09 04:52:08;;;;;;;4.57;2.00;;;;;;;30.50;23.09;94894.75;5034364;28;20053;-55
2021/09/09 04:54:35;;;;;;;4.28;2.03;;;;;;;30.42;23.28;94891.34;5034834;28;20048;-54
2021/09/09 04:57:02;;;;;;;4.88;2.10;;;;;;;30.62;23.03;94884.22;5035465;28;20463;-55
2021/09/09 04:59:29;;;;;;;3.60;1.75;;;;;;;30.47;23.30;94876.69;5034829;28;20116;-57
2021/09/09 05:01:56;;;;;;;3.35;2.10;;;;;;;30.50;23.35;94882.03;5034172;28;20049;-54
2021/09/09 05:04:23;;;;;;;3.90;1.92;;;;;;;30.73;22.99;94883.38;5030511;28;20041;-55
2021/09/09 05:06:50;;;;;;;4.97;1.92;;;;;;;30.55;23.06;94878.13;5014963;28;20049;-56
2021/09/09 05:09:17;;;;;;;3.40;2.03;;;;;;;30.63;22.98;94883.06;5015424;28;20061;-53
2021/09/09 05:11:44;;;;;;;4.30;1.95;;;;;;;30.63;23.24;94880.38;5022750;28;20049;-55
2021/09/09 05:14:11;;;;;;;7.60;2.15;;;;;;;30.52;23.20;94878.94;5034250;28;20045;-55
2021/09/09 05:16:39;;;;;;;5.53;2.00;;;;;;;30.66;23.04;94890.34;5034215;28;20069;-55
2021/09/09 05:19:07;;;;;;;4.55;2.25;;;;;;;30.93;22.76;94876.16;5035148;28;20048;-54
2021/09/09 05:21:35;;;;;;;2.75;1.98;;;;;;;30.75;22.95;94865.59;5034121;28;20460;-55
2021/09/09 05:24:02;;;;;;;4.70;2.55;;;;;;;30.93;22.77;94878.88;5034532;28;20045;-57
2021/09/09 05:26:30;;;;;;;4.82;2.13;;;;;;;30.93;22.76;94881.56;5034561;28;20376;-55
2021/09/09 05:28:57;;;;;;;6.40;2.00;;;;;;;30.71;23.24;94877.56;5034447;28;20056;-54
2021/09/09 05:31:24;;;;;;;7.10;2.10;;;;;;;30.66;23.11;94876.84;5034108;28;20470;-58
2021/09/09 05:33:51;;;;;;;4.05;2.10;;;;;;;30.87;22.98;94875.09;5034285;28;20056;-57
2021/09/09 05:36:18;;;;;;;3.25;2.20;;;;;;;30.71;23.17;94874.88;5034773;28;20053;-55
2021/09/09 05:38:45;;;;;;;5.35;2.30;;;;;;;30.87;22.93;94872.38;5034546;28;20057;-56
2021/09/09 05:41:12;;;;;;;3.28;1.92;;;;;;;30.86;22.93;94871.63;5034662;28;20547;-54
2021/09/09 05:43:39;;;;;;;4.15;2.17;;;;;;;30.57;23.28;94865.75;5033937;28;20053;-55
2021/09/09 05:46:06;;;;;;;4.65;2.30;;;;;;;30.64;23.30;94876.50;5033812;28;20045;-57
2021/09/09 05:48:33;;;;;;;5.60;2.00;;;;;;;30.71;23.15;94864.09;5036811;28;20050;-55
2021/09/09 05:51:00;;;;;;;4.30;2.28;;;;;;;30.86;22.94;94865.47;5037759;28;20057;-57
2021/09/09 05:53:28;;;;;;;5.95;2.35;;;;;;;30.65;23.12;94872.63;5037443;28;20057;-57
2021/09/09 05:55:55;;;;;;;6.60;2.22;;;;;;;30.53;23.46;94875.84;5038023;28;20456;-58
2021/09/09 05:58:22;;;;;;;5.35;2.40;;;;;;;30.78;23.09;94874.81;5037855;28;20049;-56
2021/09/09 06:00:49;;;;;;;5.03;2.05;;;;;;;30.77;23.00;94870.59;5037376;28;20068;-54
2021/09/09 06:03:16;;;;;;;4.88;2.33;;;;;;;30.72;23.08;94871.81;5036958;28;20049;-60
2021/09/09 06:05:43;;;;;;;3.58;2.05;;;;;;;30.74;23.13;94864.06;5038001;28;20121;-57
2021/09/09 06:08:10;;;;;;;3.97;2.10;;;;;;;30.62;23.25;94870.75;5036917;28;20380;-60
2021/09/09 06:10:37;;;;;;;6.32;2.30;;;;;;;30.32;23.54;94873.34;5036798;28;20060;-58
2021/09/09 06:13:05;;;;;;;5.35;2.22;;;;;;;30.42;23.34;94883.25;5037259;28;20049;-61
2021/09/09 06:15:32;;;;;;;5.53;2.55;;;;;;;30.68;23.44;94879.91;5037291;28;20057;-59
2021/09/09 06:17:59;;;;;;;5.05;2.20;;;;;;;30.60;23.55;94870.38;5037724;28;20452;-62
2021/09/09 06:20:26;;;;;;;6.45;2.45;;;;;;;30.69;23.82;94876.06;5037768;28;20471;-60
2021/09/09 06:22:53;;;;;;;3.28;1.90;;;;;;;30.56;23.99;94875.03;5037119;28;20053;-62
2021/09/09 06:25:20;;;;;;;4.18;2.30;;;;;;;30.31;24.30;94877.22;5038356;28;20053;-61
2021/09/09 06:27:47;;;;;;;5.82;2.15;;;;;;;30.60;24.49;94875.78;5037702;28;20061;-61
2021/09/09 06:30:14;;;;;;;5.32;2.60;;;;;;;30.53;24.31;94870.44;5037502;28;20741;-61
2021/09/09 06:32:41;;;;;;;4.28;2.53;;;;;;;30.53;24.63;94875.84;5036967;28;20057;-62
2021/09/09 06:35:09;;;;;;;5.38;2.83;;;;;;;30.59;24.51;94874.22;5038263;28;20057;-54
2021/09/09 06:37:36;;;;;;;6.10;2.88;;;;;;;30.54;25.01;94871.97;5052935;28;20053;-55
2021/09/09 06:40:03;;;;;;;4.75;2.75;;;;;;;30.77;24.42;94873.28;5036726;28;20053;-56
2021/09/09 06:42:30;;;;;;;6.70;2.70;;;;;;;30.84;24.54;94873.19;5036546;28;20053;-56
2021/09/09 06:44:57;;;;;;;6.47;2.60;;;;;;;30.84;24.27;94873.19;5036574;28;20452;-55
2021/09/09 06:47:25;;;;;;;4.90;2.65;;;;;;;30.84;24.20;94873.19;5036762;28;20375;-56
2021/09/09 06:49:52;;;;;;;4.97;2.00;;;;;;;30.94;24.17;94877.69;5052694;28;20045;-56
2021/09/09 06:52:19;;;;;;;3.20;1.90;;;;;;;30.81;23.79;94880.16;5036872;28;20041;-54
2021/09/09 06:54:46;;;;;;;3.17;2.22;;;;;;;30.92;23.72;94885.44;5037136;28;20049;-56
2021/09/09 06:57:13;;;;;;;3.25;1.98;;;;;;;30.84;23.57;94884.00;5036824;28;20408;-56
2021/09/09 06:59:41;;;;;;;3.83;2.33;;;;;;;31.12;23.12;94891.75;5036036;28;20064;-56
2021/09/09 07:02:08;;;;;;;4.03;2.08;;;;;;;30.69;23.44;94894.94;5036995;28;20056;-55
2021/09/09 07:04:35;;;;;;;6.05;2.15;;;;;;;30.64;23.29;94881.13;5037088;28;20058;-59
2021/09/09 07:07:02;;;;;;;4.00;2.08;;;;;;;30.81;23.34;94890.19;5036697;28;20048;-56
2021/09/09 07:09:41;;;;;;;3.95;2.17;;;;;;;30.86;23.16;94887.81;5037585;28;20064;-57
2021/09/09 07:12:09;;;;;;;5.38;2.63;;;;;;;30.94;23.20;94883.84;5036314;28;20048;-56
2021/09/09 07:14:36;;;;;;;3.47;2.03;;;;;;;31.09;23.17;94884.47;5036187;28;20065;-57
2021/09/09 07:17:03;;;;;;;6.47;2.10;;;;;;;31.01;22.98;94888.41;5036625;28;20470;-58
2021/09/09 07:19:30;;;;;;;4.47;1.88;;;;;;;30.91;23.14;94890.06;5036536;28;20056;-56
2021/09/09 07:21:57;;;;;;;5.25;2.00;;;;;;;31.32;22.77;94900.00;5036752;28;20046;-57
2021/09/09 07:24:24;;;;;;;3.72;1.95;;;;;;;31.04;23.18;94903.81;5036426;28;20049;-55
2021/09/09 07:26:53;;;;;;;8.30;2.22;;;;;;;31.34;22.89;94899.59;5036784;28;20057;-56
2021/09/09 07:29:20;;;;;;;4.85;1.90;;;;;;;31.02;22.94;94887.25;5036898;28;20053;-56
2021/09/09 07:31:47;;;;;;;5.03;2.22;;;;;;;30.52;23.80;94895.88;5036388;28;20049;-56
2021/09/09 07:34:14;;;;;;;4.45;1.70;;;;;;;30.87;23.33;94899.38;5036561;28;20380;-57
2021/09/09 07:36:41;;;;;;;3.90;1.70;;;;;;;30.87;23.12;94899.38;5036392;28;20518;-57
2021/09/09 07:39:08;;;;;;;4.22;1.90;;;;;;;30.63;23.55;94896.56;5036654;28;20053;-55
2021/09/09 07:41:35;;;;;;;6.50;2.10;;;;;;;30.87;23.39;94910.16;5036403;28;20345;-57
2021/09/09 07:44:03;;;;;;;5.78;2.10;;;;;;;31.03;23.50;94901.50;5035656;28;20045;-55
2021/09/09 07:46:30;;;;;;;3.88;1.95;;;;;;;30.87;23.28;94910.16;5037182;28;20487;-54
2021/09/09 07:48:57;;;;;;;5.75;2.10;;;;;;;31.07;23.22;94913.78;5036135;28;20049;-59
2021/09/09 07:51:24;;;;;;;4.50;2.20;;;;;;;30.88;23.31;94917.09;5036043;28;20384;-57
2021/09/09 07:53:51;;;;;;;4.22;2.08;;;;;;;30.89;23.35;94915.94;5035693;28;20045;-57
2021/09/09 07:56:18;;;;;;;4.18;2.30;;;;;;;30.79;23.43;94925.69;5036726;28;20053;-58
2021/09/09 07:58:49;;;;;;;3.63;2.05;;;;;;;30.84;23.52;94921.78;5035689;28;20072;-58
2021/09/09 08:01:22;;;;;;;5.10;2.20;;;;;;;30.91;23.55;94927.09;5035815;28;20046;-56
2021/09/09 08:03:49;;;;;;;4.05;2.03;;;;;;;31.11;23.31;94930.72;5035442;28;20053;-57
2021/09/09 08:06:17;;;;;;;5.82;2.20;;;;;;;31.01;23.39;94937.00;5035691;28;20041;-57
2021/09/09 08:08:44;;;;;;;5.05;2.03;;;;;;;30.89;23.30;94940.97;5036363;28;20465;-57
2021/09/09 08:11:11;;;;;;;5.35;2.42;;;;;;;30.91;23.50;94933.25;5035512;28;20448;-57
2021/09/09 08:13:39;;;;;;;7.20;2.22;;;;;;;30.56;23.69;94934.38;5035236;28;20119;-58
2021/09/09 08:16:06;;;;;;;5.20;2.28;;;;;;;30.64;23.70;94946.66;5064271;28;20072;-57
2021/09/09 08:18:33;;;;;;;6.63;2.60;;;;;;;30.73;23.96;94931.94;5035321;28;20049;-58
2021/09/09 08:21:00;;;;;;;5.13;2.22;;;;;;;30.96;23.59;94934.72;5035551;28;20080;-59
2021/09/09 08:23:28;;;;;;;2.90;1.95;;;;;;;31.16;23.31;94943.00;5035079;28;20046;-61
2021/09/09 08:25:55;;;;;;;4.60;1.98;;;;;;;30.95;23.48;94939.38;5035723;28;20566;-61
2021/09/09 08:28:22;;;;;;;5.28;2.20;;;;;;;30.82;23.69;94934.91;5035200;28;20045;-59
2021/09/09 08:30:49;;;;;;;4.75;2.25;;;;;;;30.92;23.66;94936.72;5035727;28;20064;-61
2021/09/09 08:33:16;;;;;;;5.43;3.85;;;;;;;30.83;24.16;94931.03;5035230;28;20321;-59
2021/09/09 08:35:43;;;;;;;5.40;2.40;;;;;;;30.89;24.07;94932.13;5035305;28;20060;-61
2021/09/09 08:38:10;;;;;;;4.68;2.28;;;;;;;30.83;24.09;94928.34;5034772;28;20056;-62
2021/09/09 08:40:39;;;;;;;6.03;2.33;;;;;;;30.80;24.16;94926.44;5035168;28;20061;-63
2021/09/09 08:43:07;;;;;;;6.13;2.47;;;;;;;31.05;24.06;94920.78;5034694;28;20052;-62
2021/09/09 08:45:34;;;;;;;4.22;1.98;;;;;;;30.92;23.92;94917.81;5034965;28;20053;-55
2021/09/09 08:48:03;;;;;;;4.65;2.25;;;;;;;31.13;23.53;94924.91;5034672;28;20064;-55
2021/09/09 08:50:32;;;;;;;8.02;2.03;;;;;;;31.06;23.57;94923.06;5034989;28;20045;-55
2021/09/09 08:53:01;;;;;;;5.85;2.38;;;;;;;30.77;24.45;94921.88;5034633;28;20057;-54
2021/09/09 08:55:28;;;;;;;5.63;2.22;;;;;;;30.89;23.90;94924.03;5034796;28;20052;-55
2021/09/09 08:57:56;;;;;;;3.80;2.00;;;;;;;30.82;24.51;94922.19;5034657;28;20076;-55
2021/09/09 09:00:24;;;;;;;5.05;2.17;;;;;;;30.69;24.41;94929.25;5035145;28;20049;-55
2021/09/09 09:02:55;;;;;;;5.03;1.70;;;;;;;30.93;24.00;94930.16;5034393;28;20049;-57
2021/09/09 09:05:24;;;;;;;3.25;1.90;;;;;;;30.75;24.24;94921.50;5034584;28;20329;-54
2021/09/09 09:08:02;;;;;;;4.03;1.65;;;;;;;30.80;24.56;94921.81;5034709;28;20053;-55
2021/09/09 09:10:30;;;;;;;2.95;1.63;;;;;;;30.80;24.52;94923.75;5035015;28;20045;-54
2021/09/09 09:12:58;;;;;;;3.00;1.77;;;;;;;30.55;25.20;94932.06;5034875;28;20053;-55
2021/09/09 09:15:30;;;;;;;9.77;6.63;;;;;;;30.31;25.28;94929.22;5033807;28;20056;-55
2021/09/09 09:18:10;;;;;;;5.68;2.85;;;;;;;30.57;25.31;94918.94;5034333;28;20054;-54
2021/09/09 09:20:42;;;;;;;6.22;2.78;;;;;;;30.55;25.12;94916.66;5034715;28;20056;-53
2021/09/09 09:23:13;;;;;;;7.65;2.42;;;;;;;30.59;24.78;94917.38;5033684;28;20057;-57
2021/09/09 09:25:59;;;;;;;3.22;2.08;;;;;;;30.58;25.21;94921.25;5034634;28;20352;-59
2021/09/09 09:28:47;;;;;;;7.32;2.85;;;;;;;30.38;25.34;94912.19;5033399;28;20049;-58
2021/09/09 09:31:24;;;;;;;3.38;2.20;;;;;;;30.76;24.80;94912.25;5034698;28;20041;-57
2021/09/09 09:33:59;;;;;;;4.18;2.10;;;;;;;30.66;25.19;94906.53;5033943;28;20053;-57
2021/09/09 09:36:31;;;;;;;3.53;2.13;;;;;;;30.60;25.48;94908.16;5034756;28;20046;-56
2021/09/09 09:39:12;;;;;;;4.65;2.10;;;;;;;30.74;25.16;94911.88;5034290;28;20057;-59
2021/09/09 09:41:42;;;;;;;5.53;2.22;;;;;;;30.79;25.29;94908.72;5033318;28;20053;-53
2021/09/09 09:44:11;;;;;;;4.35;2.10;;;;;;;30.86;25.48;94897.84;5033771;28;20060;-54
2021/09/09 09:46:40;;;;;;;6.63;2.00;;;;;;;31.10;24.86;94906.81;5034393;28;20050;-57
2021/09/09 09:49:25;;;;;;;6.50;2.30;;;;;;;30.75;25.47;94910.72;5035085;28;20356;-56
2021/09/09 09:51:54;;;;;;;4.20;1.90;;;;;;;30.94;25.17;94910.84;5049640;28;20038;-56
2021/09/09 09:54:22;;;;;;;4.70;2.17;;;;;;;31.02;24.97;94898.06;5034699;28;20057;-58
2021/09/09 09:56:49;;;;;;;2.88;1.90;;;;;;;31.11;24.77;94903.72;5034500;28;20045;-61
2021/09/09 09:59:17;;;;;;;3.95;1.83;;;;;;;30.89;25.18;94897.03;5033822;28;20046;-54
2021/09/09 10:01:44;;;;;;;3.50;1.90;;;;;;;30.81;25.36;94898.28;5033832;28;20052;-56
2021/09/09 10:04:21;;;;;;;3.97;1.85;;;;;;;30.93;25.29;94897.75;5034120;28;20372;-57
2021/09/09 10:06:50;;;;;;;4.82;2.63;;;;;;;31.01;25.27;94893.81;5049793;28;20041;-57
2021/09/09 10:09:18;;;;;;;5.93;2.70;;;;;;;31.02;25.09;94897.28;5033750;28;20056;-59
2021/09/09 10:11:45;;;;;;;4.68;2.40;;;;;;;30.86;25.58;94901.31;5033878;28;20444;-58
2021/09/09 10:14:22;;;;;;;3.65;2.33;;;;;;;30.85;25.54;94896.31;5033243;28;20042;-57
2021/09/09 10:16:51;;;;;;;4.38;2.20;;;;;;;30.75;25.44;94899.91;5033114;28;20372;-60
2021/09/09 10:19:30;;;;;;;7.68;2.00;;;;;;;31.13;25.04;94900.59;5033729;28;20503;-56
2021/09/09 10:22:17;;;;;;;3.67;2.00;;;;;;;30.94;25.00;94896.59;5033690;28;20076;-60
2021/09/09 10:24:49;;;;;;;3.58;2.10;;;;;;;30.89;25.18;94897.03;5034129;28;20061;-61
2021/09/09 10:27:52;;;;;;;5.03;2.13;;;;;;;30.96;25.06;94907.75;5033753;28;20046;-57
2021/09/09 10:30:19;;;;;;;2.53;1.77;;;;;;;31.01;24.98;94896.53;5051623;28;20045;-63
2021/09/09 10:32:47;;;;;;;3.30;1.88;;;;;;;31.00;25.14;94897.69;5036581;28;20053;-58
2021/09/09 10:35:18;;;;;;;3.95;1.92;;;;;;;31.08;25.19;94901.06;5035975;28;20056;-57
2021/09/09 10:37:50;;;;;;;4.63;1.80;;;;;;;31.00;25.13;94897.69;5037311;28;20471;-59
2021/09/09 10:40:39;;;;;;;3.17;2.00;;;;;;;31.12;24.98;94893.69;5037454;28;20053;-60
2021/09/09 10:43:27;;;;;;;4.05;1.80;;;;;;;30.99;25.04;94890.75;5036969;28;20045;-61
2021/09/09 10:46:13;;;;;;;3.13;1.88;;;;;;;31.03;24.97;94891.47;5039486;28;20041;-59
2021/09/09 10:48:43;;;;;;;3.80;2.00;;;;;;;30.95;25.41;94901.56;5037800;28;20057;-62
2021/09/09 10:51:15;;;;;;;2.92;1.85;;;;;;;31.13;24.79;94900.59;5052531;28;20321;-62
2021/09/09 10:53:53;;;;;;;4.55;2.38;;;;;;;31.12;24.62;94899.84;5036979;28;20050;-62
2021/09/09 10:56:35;;;;;;;5.05;2.10;;;;;;;31.26;24.63;94894.28;5037225;28;20053;-55
2021/09/09 10:59:15;;;;;;;4.10;2.00;;;;;;;31.34;24.14;94897.66;5036838;28;20060;-54
2021/09/09 11:01:45;;;;;;;3.03;1.75;;;;;;;31.34;23.94;94894.19;5036708;28;20045;-54
2021/09/09 11:04:28;;;;;;;3.22;1.52;;;;;;;31.07;24.10;94875.22;5036422;28;20658;-53
2021/09/09 11:06:56;;;;;;;5.20;1.85;;;;;;;31.27;23.56;94884.25;5037001;28;20057;-57
2021/09/09 11:09:24;;;;;;;4.90;1.70;;;;;;;31.29;23.65;94890.78;5036534;28;20049;-54
2021/09/09 11:12:02;;;;;;;2.70;1.80;;;;;;;31.19;23.14;94882.81;5036603;28;20041;-55
2021/09/09 11:14:33;;;;;;;5.47;1.90;;;;;;;31.42;23.22;94876.72;5022249;28;20061;-56
2021/09/09 11:17:00;;;;;;;5.85;1.73;;;;;;;31.63;22.71;94876.41;5036444;28;20380;-54
2021/09/09 11:19:28;;;;;;;3.75;1.50;;;;;;;31.38;22.98;94873.31;5036671;28;20046;-55
2021/09/09 11:21:59;;;;;;;3.03;1.50;;;;;;;31.59;22.91;94878.41;5036391;28;20045;-57
2021/09/09 11:24:27;;;;;;;3.25;1.80;;;;;;;31.46;22.40;94878.19;5036959;28;20075;-55
2021/09/09 11:26:54;;;;;;;4.20;1.63;;;;;;;31.53;22.01;94874.63;5036236;28;20045;-56
2021/09/09 11:29:23;;;;;;;2.53;1.30;;;;;;;31.50;22.16;94864.66;5036143;28;20334;-56
2021/09/09 11:31:53;;;;;;;2.50;1.27;;;;;;;31.66;22.35;94870.19;5036448;28;20056;-55
2021/09/09 11:34:31;;;;;;;5.00;1.50;;;;;;;31.36;22.33;94871.00;5036566;28;20042;-56
2021/09/09 11:37:03;;;;;;;2.85;1.85;;;;;;;31.61;22.33;94865.25;5036008;28;20045;-56
2021/09/09 11:39:33;;;;;;;6.47;5.53;;;;;;;31.55;22.42;94869.59;5035891;28;20053;-55
2021/09/09 11:42:04;;;;;;;6.38;3.17;;;;;;;31.70;22.55;94862.78;5035921;28;20456;-56